Time;durP1;ratioP1;P1;durP2;ratioP2;P2;SDS_P1;SDS_P2;PMS_P1;PMS_P2;Temp;Humidity;BMP_temperature;BMP_pressure;BME280_temperature;BME280_humidity;BME280_pressure;Samples;Min_cycle;Max_cycle;Signal;HPM_P1;HPM_P2
2022/02/26 00:02:17;;;;;;;3.28;1.55;;;17.00;53.70;;;;;;5072012;28;20404;-64
2022/02/26 00:04:42;;;;;;;3.83;1.88;;;17.00;53.70;;;;;;5071549;28;20179;-64
2022/02/26 00:07:08;;;;;;;4.13;2.15;;;16.90;53.70;;;;;;5071773;28;20171;-63
2022/02/26 00:09:34;;;;;;;5.40;1.92;;;16.90;53.60;;;;;;5072100;28;20644;-63
2022/02/26 00:11:59;;;;;;;3.30;1.80;;;16.90;53.60;;;;;;5071094;28;20178;-64
2022/02/26 00:14:25;;;;;;;4.47;1.95;;;16.90;53.60;;;;;;5071968;28;20170;-65
2022/02/26 00:16:50;;;;;;;3.25;1.70;;;16.90;53.70;;;;;;5072215;28;20259;-65
2022/02/26 00:19:16;;;;;;;3.47;1.77;;;16.90;53.60;;;;;;5071060;28;20174;-64
2022/02/26 00:21:41;;;;;;;4.07;1.63;;;16.80;53.50;;;;;;5071844;28;20189;-64
2022/02/26 00:24:07;;;;;;;4.05;2.03;;;16.90;53.50;;;;;;5072011;28;20173;-63
2022/02/26 00:26:32;;;;;;;6.40;2.08;;;16.90;53.40;;;;;;5071208;28;20239;-62
2022/02/26 00:28:58;;;;;;;3.95;1.75;;;16.90;53.70;;;;;;5071326;28;20181;-61
2022/02/26 00:31:23;;;;;;;3.47;1.77;;;16.80;53.50;;;;;;5072070;28;20190;-62
2022/02/26 00:33:49;;;;;;;3.08;1.70;;;16.80;53.40;;;;;;5071205;28;20280;-63
2022/02/26 00:36:14;;;;;;;3.42;1.77;;;16.80;53.30;;;;;;5071559;28;20227;-64
2022/02/26 00:38:40;;;;;;;3.72;1.50;;;16.80;53.30;;;;;;5071996;28;20671;-64
2022/02/26 00:41:05;;;;;;;4.63;2.08;;;16.80;53.20;;;;;;5070804;28;20559;-64
2022/02/26 00:43:31;;;;;;;2.75;1.85;;;16.80;53.30;;;;;;5071713;28;20179;-65
2022/02/26 00:45:56;;;;;;;3.65;1.83;;;16.70;53.20;;;;;;5073326;28;20197;-64
2022/02/26 00:49:46;;;;;;;3.63;1.38;;;16.70;53.30;;;;;;5076024;28;20170;-63
2022/02/26 00:51:07;;;;;;;4.88;1.95;;;16.70;53.30;;;;;;5075279;28;20178;-62
2022/02/26 00:53:33;;;;;;;2.83;1.52;;;16.70;53.30;;;;;;5074815;28;20205;-62
2022/02/26 00:55:58;;;;;;;3.95;1.95;;;16.70;53.20;;;;;;5075020;28;20657;-63
2022/02/26 00:58:24;;;;;;;4.53;1.92;;;16.70;53.20;;;;;;5075168;28;20218;-64
2022/02/26 01:00:49;;;;;;;3.97;1.80;;;16.70;53.10;;;;;;5074725;28;20174;-64
2022/02/26 01:03:15;;;;;;;4.50;1.88;;;16.70;53.10;;;;;;5075044;28;20236;-64
2022/02/26 01:05:40;;;;;;;4.78;2.00;;;16.70;53.10;;;;;;5075415;28;20653;-63
2022/02/26 01:08:06;;;;;;;5.70;2.08;;;16.70;53.10;;;;;;5074378;28;20176;-62
2022/02/26 01:10:32;;;;;;;4.47;2.15;;;16.60;53.10;;;;;;5075214;28;20309;-63
2022/02/26 01:12:57;;;;;;;3.67;1.75;;;16.60;53.00;;;;;;5074868;28;20178;-62
2022/02/26 01:15:23;;;;;;;3.47;1.70;;;16.60;53.00;;;;;;5074791;28;20205;-63
2022/02/26 01:17:48;;;;;;;5.82;2.03;;;16.60;53.00;;;;;;5075142;28;20210;-64
2022/02/26 01:20:14;;;;;;;5.82;2.05;;;16.60;52.90;;;;;;5074721;28;20182;-63
2022/02/26 01:22:39;;;;;;;3.40;1.80;;;16.60;52.90;;;;;;5074247;28;20471;-64
2022/02/26 01:25:05;;;;;;;5.03;2.17;;;16.60;52.90;;;;;;5074448;28;20174;-62
2022/02/26 01:27:31;;;;;;;4.57;2.10;;;16.60;52.80;;;;;;5074862;28;20227;-62
2022/02/26 01:29:56;;;;;;;5.03;2.33;;;16.50;52.80;;;;;;5074069;28;20170;-63
2022/02/26 01:32:21;;;;;;;3.22;1.77;;;16.60;52.90;;;;;;5074830;28;20646;-63
2022/02/26 01:34:47;;;;;;;4.10;2.00;;;16.60;52.90;;;;;;5074840;28;20185;-63
2022/02/26 01:37:13;;;;;;;2.83;1.52;;;16.50;52.80;;;;;;5073756;28;20202;-64
2022/02/26 01:39:38;;;;;;;3.45;2.10;;;16.50;52.80;;;;;;5074721;28;20173;-64
2022/02/26 01:42:04;;;;;;;2.50;1.48;;;16.50;52.80;;;;;;5074435;28;20174;-65
2022/02/26 01:44:29;;;;;;;4.30;2.10;;;16.50;52.70;;;;;;5073829;28;20507;-65
2022/02/26 01:46:55;;;;;;;4.32;2.55;;;16.50;52.70;;;;;;5074444;28;20212;-63
2022/02/26 01:49:20;;;;;;;4.78;1.75;;;16.50;52.70;;;;;;5073944;28;20316;-63
2022/02/26 01:51:49;;;;;;;4.30;2.13;;;16.50;52.70;;;;;;5074587;28;20182;-63
2022/02/26 01:54:14;;;;;;;4.95;2.35;;;16.50;52.70;;;;;;5074206;28;20264;-63
2022/02/26 01:56:40;;;;;;;3.25;1.98;;;16.40;52.70;;;;;;5072516;28;20250;-63
2022/02/26 01:59:05;;;;;;;3.38;1.80;;;16.40;52.60;;;;;;5073846;28;20234;-63
2022/02/26 02:01:31;;;;;;;5.40;2.40;;;16.40;52.60;;;;;;5074464;28;20175;-64
2022/02/26 02:03:56;;;;;;;3.92;2.22;;;16.40;52.50;;;;;;5073171;28;20182;-63
2022/02/26 02:06:22;;;;;;;4.75;2.33;;;16.40;52.50;;;;;;5074017;28;20660;-63
2022/02/26 02:08:47;;;;;;;4.70;1.77;;;16.40;52.60;;;;;;5074081;28;20703;-62
2022/02/26 02:11:13;;;;;;;3.15;2.05;;;16.40;52.50;;;;;;5055423;28;20261;-62
2022/02/26 02:13:38;;;;;;;4.88;1.67;;;16.40;52.50;;;;;;5056474;28;20173;-64
2022/02/26 02:16:05;;;;;;;3.70;1.90;;;16.40;52.40;;;;;;5073882;28;20174;-64
2022/02/26 02:18:30;;;;;;;3.70;2.13;;;16.40;52.30;;;;;;5073534;28;20521;-65
2022/02/26 02:20:57;;;;;;;4.20;2.10;;;16.40;52.40;;;;;;5073829;28;20167;-64
2022/02/26 02:23:23;;;;;;;1.67;1.42;;;16.30;52.30;;;;;;5074002;28;20186;-64
2022/02/26 02:25:49;;;;;;;4.07;2.03;;;16.30;52.40;;;;;;5073158;28;20187;-63
2022/02/26 02:28:15;;;;;;;3.05;2.33;;;16.30;52.30;;;;;;5055859;28;20231;-62
2022/02/26 02:30:40;;;;;;;4.15;2.00;;;16.30;52.30;;;;;;5073779;28;20174;-63
2022/02/26 02:33:06;;;;;;;3.50;2.22;;;16.30;52.30;;;;;;5072786;28;20189;-63
2022/02/26 02:35:41;;;;;;;2.80;1.75;;;16.30;52.30;;;;;;5073601;28;20185;-65
2022/02/26 02:38:14;;;;;;;4.10;2.00;;;16.30;52.20;;;;;;5073167;28;20212;-64
2022/02/26 02:40:40;;;;;;;4.35;2.13;;;16.20;52.20;;;;;;5072921;28;20235;-65
2022/02/26 02:43:06;;;;;;;3.45;1.95;;;16.30;52.20;;;;;;5073331;28;20593;-64
2022/02/26 02:45:32;;;;;;;3.90;1.98;;;16.20;52.20;;;;;;5072849;28;20725;-64
2022/02/26 02:47:57;;;;;;;4.00;2.40;;;16.20;52.20;;;;;;5072921;28;20696;-64
2022/02/26 02:50:23;;;;;;;4.47;2.17;;;16.20;52.20;;;;;;5073314;28;20209;-63
2022/02/26 02:52:49;;;;;;;4.57;2.00;;;16.20;52.10;;;;;;5072881;28;20621;-62
2022/02/26 02:55:14;;;;;;;5.07;2.13;;;16.20;52.20;;;;;;5073150;28;20537;-63
2022/02/26 02:57:41;;;;;;;5.88;2.03;;;16.20;52.10;;;;;;5073112;28;20242;-64
2022/02/26 03:00:07;;;;;;;3.20;2.03;;;16.20;52.10;;;;;;5072214;28;20175;-63
2022/02/26 03:02:32;;;;;;;4.65;1.92;;;16.20;52.00;;;;;;5073114;28;20284;-65
2022/02/26 03:04:58;;;;;;;3.92;2.08;;;16.10;52.00;;;;;;5072950;28;20178;-63
2022/02/26 03:07:23;;;;;;;3.25;1.77;;;16.20;52.00;;;;;;5072289;28;20178;-64
2022/02/26 03:09:49;;;;;;;3.22;2.05;;;16.10;52.00;;;;;;5073046;28;20228;-63
2022/02/26 03:12:14;;;;;;;3.33;2.08;;;16.10;52.00;;;;;;5072799;28;20262;-63
2022/02/26 03:14:40;;;;;;;4.57;2.25;;;16.10;51.90;;;;;;5072239;28;20197;-63
2022/02/26 03:17:05;;;;;;;4.10;1.85;;;16.10;52.00;;;;;;5072294;28;20206;-64
2022/02/26 03:19:31;;;;;;;3.42;2.00;;;16.10;51.90;;;;;;5072580;28;20580;-65
2022/02/26 03:21:56;;;;;;;4.53;2.03;;;16.10;51.90;;;;;;5072272;28;20629;-63
2022/02/26 03:24:22;;;;;;;5.80;1.98;;;16.10;51.90;;;;;;5073639;28;20174;-63
2022/02/26 03:26:55;;;;;;;5.45;2.35;;;16.10;51.90;;;;;;5073636;28;20182;-62
2022/02/26 03:29:22;;;;;;;4.75;2.30;;;16.00;51.90;;;;;;5072704;28;20597;-62
2022/02/26 03:31:47;;;;;;;3.97;1.92;;;16.10;51.90;;;;;;5073435;28;20190;-63
2022/02/26 03:34:13;;;;;;;3.88;2.28;;;16.10;51.90;;;;;;5072961;28;20206;-63
2022/02/26 03:36:38;;;;;;;3.80;2.10;;;16.00;51.80;;;;;;5072678;28;20206;-64
2022/02/26 03:39:04;;;;;;;2.90;1.83;;;16.00;51.80;;;;;;5072925;28;20637;-64
2022/02/26 03:41:29;;;;;;;5.70;2.40;;;16.00;51.80;;;;;;5073452;28;20179;-65
2022/02/26 03:43:55;;;;;;;3.55;1.95;;;16.00;51.80;;;;;;5072299;28;20648;-64
2022/02/26 03:46:20;;;;;;;4.50;2.15;;;16.00;51.80;;;;;;5073355;28;20178;-64
2022/02/26 03:48:46;;;;;;;5.20;2.08;;;16.00;51.80;;;;;;5072326;28;20169;-63
2022/02/26 03:51:14;;;;;;;2.65;1.63;;;16.00;51.80;;;;;;5072953;28;20375;-63
2022/02/26 03:53:39;;;;;;;4.13;2.40;;;16.00;51.80;;;;;;5073216;28;20648;-62
2022/02/26 03:56:04;;;;;;;4.57;2.08;;;16.00;51.80;;;;;;5071963;28;20179;-63
2022/02/26 03:58:30;;;;;;;4.75;2.47;;;15.90;51.70;;;;;;5072811;28;20233;-64
2022/02/26 04:00:56;;;;;;;3.65;2.05;;;15.90;51.70;;;;;;5072834;28;20174;-64
2022/02/26 04:03:21;;;;;;;3.90;2.00;;;15.90;51.70;;;;;;5072270;28;20174;-63
2022/02/26 04:05:48;;;;;;;2.95;1.73;;;15.90;51.70;;;;;;5072825;28;20206;-64
2022/02/26 04:08:13;;;;;;;3.30;2.25;;;15.90;51.70;;;;;;5072675;28;20193;-63
2022/02/26 04:10:41;;;;;;;3.38;2.10;;;15.90;51.70;;;;;;5072076;28;20174;-63
2022/02/26 04:13:07;;;;;;;3.58;2.20;;;15.90;51.60;;;;;;5072434;28;20582;-63
2022/02/26 04:15:32;;;;;;;4.20;2.08;;;15.90;51.70;;;;;;5072830;28;20167;-63
2022/02/26 04:17:58;;;;;;;2.55;2.00;;;15.90;51.70;;;;;;5071597;28;20210;-65
2022/02/26 04:20:23;;;;;;;3.15;2.20;;;15.90;51.60;;;;;;5072089;28;20201;-64
2022/02/26 04:22:49;;;;;;;3.30;1.95;;;15.90;51.60;;;;;;5072704;28;20629;-64
2022/02/26 04:25:14;;;;;;;4.95;1.85;;;15.80;51.50;;;;;;5071958;28;20183;-62
2022/02/26 04:27:40;;;;;;;5.18;2.13;;;15.80;51.60;;;;;;5072700;28;20166;-63
2022/02/26 04:30:08;;;;;;;5.03;2.33;;;15.80;51.50;;;;;;5072609;28;20174;-63
2022/02/26 04:32:34;;;;;;;4.68;2.40;;;15.80;51.50;;;;;;5071983;28;20265;-64
2022/02/26 04:35:00;;;;;;;3.20;2.08;;;15.80;51.50;;;;;;5072469;28;20270;-63
2022/02/26 04:37:25;;;;;;;2.90;1.65;;;15.80;51.50;;;;;;5072715;28;20683;-65
2022/02/26 04:39:51;;;;;;;3.05;2.00;;;15.80;51.60;;;;;;5071946;28;20232;-65
2022/02/26 04:42:17;;;;;;;3.33;2.15;;;15.80;51.50;;;;;;5072318;28;20197;-64
2022/02/26 04:44:44;;;;;;;2.55;1.83;;;15.80;51.50;;;;;;5072523;28;20588;-64
2022/02/26 04:47:10;;;;;;;3.67;2.08;;;15.80;51.60;;;;;;5071438;28;20175;-64
2022/02/26 04:49:36;;;;;;;3.47;1.70;;;15.80;51.60;;;;;;5072609;28;20183;-63
2022/02/26 04:52:01;;;;;;;5.55;2.00;;;15.70;51.60;;;;;;5072068;28;20174;-63
2022/02/26 04:54:27;;;;;;;3.25;2.03;;;15.70;51.60;;;;;;5072289;28;20213;-64
2022/02/26 04:56:53;;;;;;;4.32;2.30;;;15.70;51.50;;;;;;5072216;28;20202;-63
2022/02/26 04:59:18;;;;;;;4.32;1.90;;;15.70;51.60;;;;;;5071542;28;20229;-64
2022/02/26 05:01:44;;;;;;;4.07;2.10;;;15.70;51.60;;;;;;5072317;28;20224;-64
2022/02/26 05:04:09;;;;;;;4.25;2.33;;;15.70;51.60;;;;;;5072244;28;20171;-65
2022/02/26 05:06:35;;;;;;;3.72;2.40;;;15.70;51.60;;;;;;5071755;28;20175;-64
2022/02/26 05:09:00;;;;;;;3.47;2.17;;;15.70;51.60;;;;;;5072142;28;20183;-62
2022/02/26 05:11:26;;;;;;;6.03;2.70;;;15.70;51.60;;;;;;5072301;28;20625;-64
2022/02/26 05:13:51;;;;;;;5.18;2.83;;;15.70;51.60;;;;;;5071697;28;20175;-64
2022/02/26 05:16:17;;;;;;;4.18;2.17;;;15.70;51.70;;;;;;5071858;28;20173;-63
2022/02/26 05:18:42;;;;;;;4.00;1.83;;;15.70;51.70;;;;;;5072353;28;20177;-64
2022/02/26 05:21:08;;;;;;;4.45;2.85;;;15.60;51.70;;;;;;5071352;28;20186;-63
2022/02/26 05:23:33;;;;;;;4.63;2.33;;;15.60;51.60;;;;;;5072188;28;20171;-63
2022/02/26 05:25:59;;;;;;;4.85;2.28;;;15.60;51.60;;;;;;5071806;28;20539;-62
2022/02/26 05:28:24;;;;;;;6.28;2.47;;;15.60;51.70;;;;;;5071332;28;20519;-62
2022/02/26 05:30:50;;;;;;;3.55;1.85;;;15.60;51.70;;;;;;5072509;28;20190;-63
2022/02/26 05:33:15;;;;;;;5.20;2.33;;;15.60;51.60;;;;;;5075631;28;20645;-62
2022/02/26 05:35:41;;;;;;;4.78;2.95;;;15.60;51.60;;;;;;5075048;28;20178;-64
2022/02/26 05:38:06;;;;;;;4.82;2.58;;;15.60;51.50;;;;;;5075455;28;20206;-64
2022/02/26 05:40:32;;;;;;;7.05;2.65;;;15.60;51.60;;;;;;5075542;28;20618;-65
2022/02/26 05:42:58;;;;;;;5.00;2.42;;;15.60;51.50;;;;;;5074608;28;20181;-64
2022/02/26 05:45:23;;;;;;;4.32;2.47;;;15.60;51.60;;;;;;5075428;28;20248;-64
2022/02/26 05:47:49;;;;;;;5.70;2.67;;;15.60;51.60;;;;;;5075646;28;20630;-64
2022/02/26 05:50:14;;;;;;;5.78;2.72;;;15.50;51.50;;;;;;5074612;28;20170;-63
2022/02/26 05:52:40;;;;;;;5.85;2.80;;;15.50;51.60;;;;;;5075405;28;20170;-63
2022/02/26 05:55:06;;;;;;;6.88;2.70;;;15.50;51.50;;;;;;5075187;28;20183;-63
2022/02/26 05:57:31;;;;;;;6.95;2.88;;;15.50;51.60;;;;;;5074295;28;20230;-64
2022/02/26 05:59:57;;;;;;;4.63;2.58;;;15.50;51.50;;;;;;5074762;28;20178;-64
2022/02/26 06:02:25;;;;;;;7.18;3.13;;;15.50;51.50;;;;;;5074715;28;20652;-66
2022/02/26 06:04:51;;;;;;;5.75;2.58;;;15.50;51.60;;;;;;5075341;28;20174;-63
2022/02/26 06:07:16;;;;;;;5.63;2.67;;;15.50;51.70;;;;;;5075057;28;20213;-63
2022/02/26 06:09:42;;;;;;;6.32;2.47;;;15.60;51.60;;;;;;5074379;28;20205;-62
2022/02/26 06:12:07;;;;;;;4.65;2.42;;;15.60;51.50;;;;;;5074690;28;20572;-63
2022/02/26 06:14:33;;;;;;;5.97;2.60;;;15.60;51.50;;;;;;5074960;28;20200;-63
2022/02/26 06:16:58;;;;;;;4.20;2.60;;;15.60;51.40;;;;;;5073727;28;20230;-64
2022/02/26 06:19:24;;;;;;;5.43;2.83;;;15.70;51.40;;;;;;5074832;28;20594;-64
2022/02/26 06:21:49;;;;;;;3.75;2.28;;;15.70;51.30;;;;;;5074754;28;20617;-63
2022/02/26 06:24:15;;;;;;;4.70;2.35;;;15.70;51.30;;;;;;5073913;28;20189;-63
2022/02/26 06:26:41;;;;;;;4.88;2.67;;;15.70;51.20;;;;;;5074758;28;20170;-61
2022/02/26 06:29:06;;;;;;;4.32;2.30;;;15.70;51.30;;;;;;5074393;28;20268;-61
2022/02/26 06:31:32;;;;;;;4.93;2.58;;;15.70;51.30;;;;;;5074000;28;20206;-62
2022/02/26 06:33:57;;;;;;;4.18;2.38;;;15.60;51.30;;;;;;5074588;28;20178;-63
2022/02/26 06:36:23;;;;;;;3.05;2.35;;;15.70;51.50;;;;;;5074555;28;20261;-65
2022/02/26 06:38:48;;;;;;;3.80;2.30;;;15.70;51.50;;;;;;5073685;28;20186;-64
2022/02/26 06:41:14;;;;;;;4.15;2.38;;;15.70;51.40;;;;;;5074343;28;20174;-65
2022/02/26 06:43:39;;;;;;;4.10;2.58;;;15.70;51.50;;;;;;5073670;28;20181;-64
2022/02/26 06:46:08;;;;;;;3.10;2.28;;;15.80;51.60;;;;;;5073338;28;20181;-64
2022/02/26 06:48:34;;;;;;;4.15;2.25;;;15.80;51.60;;;;;;5074496;28;20174;-63
2022/02/26 06:51:00;;;;;;;4.45;2.30;;;15.90;51.70;;;;;;5074063;28;20182;-62
2022/02/26 06:53:25;;;;;;;3.22;2.25;;;16.00;52.30;;;;;;5073656;28;20171;-62
2022/02/26 06:55:50;;;;;;;3.85;2.88;;;16.10;51.60;;;;;;5074314;28;20193;-63
2022/02/26 06:58:16;;;;;;;3.85;2.10;;;16.10;51.50;;;;;;5073480;28;20226;-62
2022/02/26 07:00:42;;;;;;;3.47;2.42;;;16.20;51.50;;;;;;5073294;28;20629;-63
2022/02/26 07:03:07;;;;;;;4.25;2.50;;;16.30;51.40;;;;;;5073691;28;20531;-63
2022/02/26 07:05:32;;;;;;;4.15;2.40;;;16.30;51.30;;;;;;5074076;28;20171;-65
2022/02/26 07:07:58;;;;;;;4.68;2.10;;;16.40;51.20;;;;;;5072892;28;20208;-63
2022/02/26 07:10:23;;;;;;;3.55;2.20;;;16.50;51.10;;;;;;5073783;28;20182;-64
2022/02/26 07:12:49;;;;;;;3.47;2.33;;;16.60;50.90;;;;;;5073025;28;20262;-62
2022/02/26 07:15:14;;;;;;;3.67;2.22;;;16.60;50.80;;;;;;5073587;28;20708;-62
2022/02/26 07:17:40;;;;;;;3.38;2.33;;;16.60;50.90;;;;;;5073532;28;20305;-64
2022/02/26 07:20:06;;;;;;;2.33;2.13;;;16.70;50.90;;;;;;5072718;28;20210;-63
2022/02/26 07:22:32;;;;;;;3.00;2.10;;;16.70;50.80;;;;;;5073609;28;20196;-64
2022/02/26 07:24:57;;;;;;;5.68;2.65;;;16.80;50.70;;;;;;5073116;28;20732;-61
2022/02/26 07:27:23;;;;;;;2.47;1.90;;;16.80;50.60;;;;;;5072631;28;20174;-62
2022/02/26 07:29:48;;;;;;;2.53;1.60;;;16.90;51.20;;;;;;5073374;28;20190;-62
2022/02/26 07:32:14;;;;;;;2.13;1.60;;;17.00;50.40;;;;;;5073151;28;20624;-62
2022/02/26 07:34:39;;;;;;;3.63;2.28;;;17.10;50.40;;;;;;5072568;28;20210;-63
2022/02/26 07:37:05;;;;;;;3.35;1.90;;;17.10;50.30;;;;;;5073133;28;20198;-62
2022/02/26 07:39:30;;;;;;;2.95;2.28;;;17.30;50.20;;;;;;5073548;28;20174;-68
2022/02/26 07:41:56;;;;;;;2.70;1.92;;;17.50;50.10;;;;;;5072125;28;20194;-67
2022/02/26 07:44:21;;;;;;;4.43;2.35;;;17.60;49.80;;;;;;5072913;28;20177;-68
2022/02/26 07:46:47;;;;;;;2.63;1.95;;;17.80;49.70;;;;;;5072974;28;20621;-64
2022/02/26 07:49:12;;;;;;;2.97;1.77;;;17.90;49.60;;;;;;5072171;28;20641;-65
2022/02/26 07:51:38;;;;;;;3.97;1.83;;;18.00;50.00;;;;;;5072812;28;20228;-65
2022/02/26 07:54:03;;;;;;;4.40;2.17;;;18.00;50.20;;;;;;5072454;28;20236;-70
2022/02/26 07:56:29;;;;;;;5.40;2.38;;;18.10;50.30;;;;;;5072021;28;20177;-68
2022/02/26 07:58:54;;;;;;;3.72;1.83;;;18.20;50.20;;;;;;5072238;28;20593;-69
2022/02/26 08:01:20;;;;;;;2.60;1.75;;;18.20;50.10;;;;;;5072881;28;20187;-68
2022/02/26 08:03:45;;;;;;;3.20;1.92;;;18.30;50.10;;;;;;5072214;28;20178;-69
2022/02/26 08:06:11;;;;;;;1.98;1.70;;;18.30;50.10;;;;;;5072698;28;20265;-68
2022/02/26 08:08:36;;;;;;;2.42;1.63;;;18.40;50.20;;;;;;5072732;28;20178;-68
2022/02/26 08:11:02;;;;;;;3.80;2.05;;;18.40;50.20;;;;;;5071790;28;20174;-69
2022/02/26 08:13:28;;;;;;;3.08;1.95;;;18.50;50.20;;;;;;5072653;28;20192;-69
2022/02/26 08:15:53;;;;;;;4.28;2.40;;;18.60;50.00;;;;;;5077190;28;20176;-69
2022/02/26 08:18:18;;;;;;;3.17;2.00;;;18.60;50.00;;;;;;5079815;28;20210;-69
2022/02/26 08:20:44;;;;;;;2.65;1.67;;;18.70;50.10;;;;;;5082859;28;20173;-69
2022/02/26 08:23:10;;;;;;;2.35;1.70;;;18.70;50.10;;;;;;5081011;28;20173;-71
2022/02/26 08:25:35;;;;;;;2.55;1.83;;;18.70;50.10;;;;;;5083697;28;20177;-70
2022/02/26 08:28:01;;;;;;;3.88;2.20;;;18.70;50.20;;;;;;5092535;28;20181;-71
2022/02/26 08:30:26;;;;;;;2.45;1.58;;;18.80;50.20;;;;;;5091900;28;20255;-70
2022/02/26 08:32:52;;;;;;;2.65;1.70;;;18.80;50.20;;;;;;5092813;28;20628;-69
2022/02/26 08:35:18;;;;;;;2.47;1.95;;;18.80;50.30;;;;;;5092862;28;20182;-68
2022/02/26 08:37:46;;;;;;;7.80;2.05;;;18.80;50.30;;;;;;5091530;28;20213;-68
2022/02/26 08:40:12;;;;;;;2.22;1.58;;;18.80;50.40;;;;;;5092281;28;20631;-68
2022/02/26 08:42:37;;;;;;;4.30;2.00;;;18.80;50.40;;;;;;5083707;28;20194;-67
2022/02/26 08:45:04;;;;;;;3.20;2.20;;;18.80;50.40;;;;;;5074835;28;20171;-69
2022/02/26 08:47:30;;;;;;;4.03;1.70;;;18.80;50.40;;;;;;5091264;28;20173;-68
2022/02/26 08:49:59;;;;;;;3.17;1.85;;;18.80;50.50;;;;;;5089105;28;20171;-69
2022/02/26 08:52:25;;;;;;;2.33;1.55;;;18.70;50.50;;;;;;5071487;28;20242;-68
2022/02/26 08:54:50;;;;;;;3.38;2.08;;;18.70;50.60;;;;;;5071874;28;20171;-68
2022/02/26 08:57:16;;;;;;;1.50;1.33;;;18.60;50.70;;;;;;5070527;28;20285;-67
2022/02/26 08:59:41;;;;;;;2.03;1.50;;;18.60;50.80;;;;;;5064873;28;20232;-66
2022/02/26 09:02:08;;;;;;;2.38;1.88;;;18.60;50.80;;;;;;5072088;28;20269;-67
2022/02/26 09:04:33;;;;;;;3.25;1.85;;;18.60;50.90;;;;;;5072302;28;20171;-67
2022/02/26 09:06:59;;;;;;;2.35;1.60;;;18.50;51.00;;;;;;5074042;28;20520;-68
2022/02/26 09:09:24;;;;;;;1.85;1.63;;;18.50;51.00;;;;;;5075935;28;20228;-69
2022/02/26 09:11:50;;;;;;;2.55;1.40;;;18.50;51.10;;;;;;5075828;28;20211;-69
2022/02/26 09:14:15;;;;;;;3.47;1.60;;;18.40;51.20;;;;;;5075125;28;20629;-69
2022/02/26 09:16:41;;;;;;;2.85;1.83;;;18.40;51.20;;;;;;5062975;28;20282;-68
2022/02/26 09:19:06;;;;;;;2.25;1.70;;;18.50;51.30;;;;;;5055479;28;20171;-72
2022/02/26 09:21:32;;;;;;;5.22;1.70;;;18.50;51.90;;;;;;5054865;28;20651;-68
2022/02/26 09:23:58;;;;;;;5.45;1.70;;;18.50;51.30;;;;;;5055437;28;20202;-68
2022/02/26 09:26:24;;;;;;;2.75;2.00;;;18.50;51.40;;;;;;5054755;28;20175;-68
2022/02/26 09:28:50;;;;;;;3.13;1.60;;;18.50;51.30;;;;;;5055813;28;20186;-72
2022/02/26 09:31:15;;;;;;;3.20;1.73;;;18.50;51.50;;;;;;5055338;28;20172;-71
2022/02/26 09:33:41;;;;;;;4.47;1.98;;;18.40;51.50;;;;;;5054697;28;20677;-70
2022/02/26 09:36:07;;;;;;;3.85;1.77;;;18.40;51.60;;;;;;5055172;28;20179;-73
2022/02/26 09:38:33;;;;;;;5.10;1.75;;;18.50;51.70;;;;;;5055350;28;20218;-66
2022/02/26 09:40:59;;;;;;;3.83;1.63;;;18.50;51.80;;;;;;5054301;28;20179;-66
2022/02/26 09:43:25;;;;;;;3.60;2.15;;;18.50;51.90;;;;;;5055038;28;20687;-68
2022/02/26 09:45:51;;;;;;;1.92;1.42;;;18.50;51.90;;;;;;5055327;28;20179;-65
2022/02/26 09:48:16;;;;;;;3.40;1.67;;;18.50;51.90;;;;;;5036983;28;20276;-69
2022/02/26 09:50:44;;;;;;;5.80;1.70;;;18.40;52.00;;;;;;5066744;28;20174;-69
2022/02/26 09:53:31;;;;;;;3.63;1.70;;;18.40;52.00;;;;;;5057410;28;20261;-70
2022/02/26 09:55:56;;;;;;;5.28;1.90;;;18.50;52.30;;;;;;5073365;28;20183;-69
2022/02/26 09:58:22;;;;;;;5.45;1.88;;;18.40;52.30;;;;;;5074890;28;20592;-69
2022/02/26 10:00:47;;;;;;;2.28;1.40;;;18.50;52.40;;;;;;5075085;28;20178;-69
2022/02/26 10:03:34;;;;;;;4.80;1.75;;;18.40;52.50;;;;;;5073886;28;20702;-71
2022/02/26 10:06:04;;;;;;;3.05;1.85;;;18.50;53.20;;;;;;5074775;28;20178;-69
2022/02/26 10:08:46;;;;;;;4.43;1.85;;;18.50;52.60;;;;;;5057053;28;20319;-71
2022/02/26 10:11:28;;;;;;;4.05;1.63;;;18.50;52.70;;;;;;5074565;28;20259;-69
2022/02/26 10:14:10;;;;;;;4.45;1.52;;;18.50;52.90;;;;;;5074356;28;20182;-69
2022/02/26 10:16:52;;;;;;;9.73;2.50;;;18.50;52.80;;;;;;5074143;28;20540;-68
2022/02/26 10:19:31;;;;;;;3.08;1.55;;;18.40;52.80;;;;;;5073910;28;20182;-69
2022/02/26 10:22:01;;;;;;;5.72;2.08;;;18.40;52.80;;;;;;5074398;28;20179;-68
2022/02/26 10:24:27;;;;;;;2.92;1.40;;;18.50;52.90;;;;;;5073820;28;20178;-68
2022/02/26 10:26:55;;;;;;;5.07;1.50;;;18.50;52.90;;;;;;5074360;28;20254;-69
2022/02/26 10:29:24;;;;;;;3.72;1.90;;;18.50;52.80;;;;;;5074662;28;20174;-69
2022/02/26 10:31:57;;;;;;;3.78;1.42;;;18.40;52.80;;;;;;5073876;28;20214;-68
2022/02/26 10:34:48;;;;;;;3.33;1.58;;;18.40;52.80;;;;;;5074476;28;20250;-69
2022/02/26 10:37:18;;;;;;;2.28;1.55;;;18.50;52.80;;;;;;5073058;28;20633;-67
2022/02/26 10:39:44;;;;;;;2.28;1.52;;;18.40;52.80;;;;;;5074427;28;20220;-68
2022/02/26 10:42:31;;;;;;;3.88;1.85;;;18.40;52.70;;;;;;5074031;28;20251;-68
2022/02/26 10:45:09;;;;;;;5.55;1.45;;;18.50;52.70;;;;;;5072930;28;20710;-68
2022/02/26 10:47:36;;;;;;;3.47;1.33;;;18.50;52.70;;;;;;5074091;28;20205;-67
2022/02/26 10:50:12;;;;;;;4.00;1.77;;;18.50;52.70;;;;;;5067664;28;20173;-69
2022/02/26 10:52:37;;;;;;;3.38;1.67;;;18.50;52.70;;;;;;5037222;28;20218;-65
2022/02/26 10:55:07;;;;;;;4.07;1.60;;;18.50;52.60;;;;;;5053748;28;20194;-69
2022/02/26 10:57:33;;;;;;;2.13;1.35;;;18.50;52.60;;;;;;5053767;28;20230;-69
2022/02/26 10:59:58;;;;;;;2.40;1.33;;;18.50;52.60;;;;;;5053219;28;20201;-71
2022/02/26 11:02:25;;;;;;;4.07;1.85;;;18.50;52.60;;;;;;5054067;28;20202;-69
2022/02/26 11:04:52;;;;;;;5.05;2.17;;;18.50;52.70;;;;;;5053214;28;20198;-69
2022/02/26 11:07:20;;;;;;;3.45;1.60;;;18.50;52.70;;;;;;5053629;28;20183;-68
2022/02/26 11:09:47;;;;;;;4.65;1.67;;;18.60;52.70;;;;;;5020182;28;20174;-67
2022/02/26 11:12:14;;;;;;;2.55;1.42;;;18.60;52.70;;;;;;5052548;28;20666;-69
2022/02/26 11:14:42;;;;;;;4.63;1.98;;;18.60;52.60;;;;;;5036024;28;20262;-67
2022/02/26 11:17:08;;;;;;;4.43;1.80;;;18.60;52.70;;;;;;5035544;28;20211;-68
2022/02/26 11:19:33;;;;;;;3.35;1.88;;;18.60;52.70;;;;;;5052791;28;20179;-67
2022/02/26 11:21:59;;;;;;;4.40;1.70;;;18.60;52.80;;;;;;5035607;28;20626;-68
2022/02/26 11:24:25;;;;;;;6.18;1.90;;;18.50;52.70;;;;;;5053648;28;20167;-68
2022/02/26 11:26:50;;;;;;;2.80;1.60;;;18.60;52.80;;;;;;5052813;28;20184;-68
2022/02/26 11:29:17;;;;;;;3.28;1.70;;;18.60;52.70;;;;;;5052734;28;20640;-68
2022/02/26 11:31:49;;;;;;;3.13;1.48;;;18.50;52.70;;;;;;5035647;28;20182;-67
2022/02/26 11:34:25;;;;;;;4.22;2.13;;;18.50;52.90;;;;;;5035259;28;20175;-66
2022/02/26 11:37:08;;;;;;;4.25;1.63;;;18.40;52.80;;;;;;5053148;28;20565;-67
2022/02/26 11:39:38;;;;;;;4.90;1.90;;;18.30;52.80;;;;;;5053096;28;20282;-67
2022/02/26 11:42:24;;;;;;;3.97;1.50;;;18.30;52.90;;;;;;5052391;28;20186;-65
2022/02/26 11:45:00;;;;;;;4.93;2.00;;;18.30;52.80;;;;;;5053326;28;20183;-66
2022/02/26 11:47:48;;;;;;;5.53;2.33;;;18.40;52.60;;;;;;5052459;28;20228;-69
2022/02/26 11:50:21;;;;;;;3.97;2.00;;;18.40;52.50;;;;;;5044821;28;20189;-69
2022/02/26 11:53:07;;;;;;;3.95;1.70;;;18.40;52.50;;;;;;5073224;28;20228;-69
2022/02/26 11:55:49;;;;;;;4.97;1.80;;;18.50;52.60;;;;;;5072340;28;20189;-69
2022/02/26 11:58:26;;;;;;;1.92;1.40;;;18.40;52.50;;;;;;5072317;28;20305;-68
2022/02/26 12:01:03;;;;;;;6.47;1.80;;;18.30;52.70;;;;;;5073147;28;20174;-69
2022/02/26 12:03:31;;;;;;;3.08;1.70;;;18.40;52.80;;;;;;5072610;28;20187;-69
2022/02/26 12:06:11;;;;;;;4.45;1.58;;;18.30;52.90;;;;;;5072614;28;20174;-68
2022/02/26 12:08:39;;;;;;;6.43;2.25;;;18.40;52.80;;;;;;5056204;28;20174;-67
2022/02/26 12:11:09;;;;;;;4.03;1.80;;;18.30;52.80;;;;;;5072533;28;20281;-71
2022/02/26 12:13:36;;;;;;;4.45;1.58;;;18.30;53.50;;;;;;5072870;28;20174;-69
2022/02/26 12:16:25;;;;;;;7.35;2.35;;;18.30;52.90;;;;;;5071769;28;20179;-69
2022/02/26 12:18:59;;;;;;;4.70;2.00;;;18.20;53.00;;;;;;5059732;28;20207;-68
2022/02/26 12:21:32;;;;;;;3.97;1.70;;;18.20;53.10;;;;;;5072500;28;20519;-67
2022/02/26 12:24:16;;;;;;;4.20;1.70;;;18.30;53.00;;;;;;5054774;28;20641;-69
2022/02/26 12:26:57;;;;;;;5.15;1.80;;;18.30;52.90;;;;;;5072831;28;20240;-69
2022/02/26 12:29:30;;;;;;;4.90;1.60;;;18.40;52.80;;;;;;5071836;28;20655;-69
2022/02/26 12:32:08;;;;;;;6.20;1.83;;;18.30;52.80;;;;;;5072285;28;20201;-69
2022/02/26 12:34:40;;;;;;;7.90;1.90;;;18.20;52.80;;;;;;5072684;28;20299;-68
2022/02/26 12:37:09;;;;;;;5.30;2.30;;;18.30;53.00;;;;;;5071743;28;20195;-68
2022/02/26 12:39:51;;;;;;;5.78;1.60;;;18.20;52.90;;;;;;5072567;28;20277;-68
2022/02/26 12:42:24;;;;;;;4.22;2.13;;;18.20;52.80;;;;;;5075361;28;20174;-69
2022/02/26 12:44:53;;;;;;;4.47;1.60;;;18.30;52.70;;;;;;5076131;28;20174;-68
2022/02/26 12:47:19;;;;;;;6.38;1.92;;;18.30;52.50;;;;;;5059201;28;20611;-69
2022/02/26 12:49:44;;;;;;;5.03;1.75;;;18.30;52.50;;;;;;5072704;28;20258;-69